Omaha, NE

9:33 PM CDT on August 04, 2015 (GMT -0500)
Eppley Airfield | | Change Station
CLOSE
Current Station
Airport
Location: Omaha,
Elevation: 981 ft
Nearby Weather Stations

Elev 981 ft 41.31 °N, 95.90 °W | Updated 41 minutes ago

Overcast
Overcast
74 °F
Feels Like 74 °F
N
9
Wind Variable Wind from ESE

Today
High -- | Low -- °F
--% Chance of Precip.
Yesterday
High -- | Low -- °F
Precip. -- in
6:21 AM 8:37 PM
Waning Gibbous, 72% visible
Pressure 29.94 in
Visibility 10.0 miles
Clouds Few 2900 ft
Mostly Cloudy 4500 ft
Overcast 5500 ft
Dew Point 66 °F
Humidity 76%
Rainfall 0.21 in
Snow Depth Not available.
UV 0 out of 12
Pollen 4.80 out of 12
Air Quality Not available.
Flu Activity Not available.
METAR KOMA 050152Z 12008KT 10SM FEW029 BKN045 OVC055 23/19 A2996 RMK AO2 SLP139 T02330189

More Conditions Fewer Conditions

Pressure 29.94 in
Visibility 10.0 miles
Clouds Few 2900 ft
Mostly Cloudy 4500 ft
Overcast 5500 ft
Dew Point 66 °F
Humidity 76%
Rainfall 0.21 in
Snow Depth Not available.
UV 0 out of 12
Pollen 4.80 out of 12
Air Quality Not available.
Flu Activity Not available.
METAR KOMA 050152Z 12008KT 10SM FEW029 BKN045 OVC055 23/19 A2996 RMK AO2 SLP139 T02330189

More Conditions Fewer Conditions

10-Day Weather Forecast

×

Almanac

Astronomy

Aug. 04, 2015 Rise Set
Actual Time
Civil Twilight
Nautical Twilight
Astronomical Twilight
Moon
Length of Visible Light
Length of Day
Tomorrow will be .
, % of the Moon is Illuminated

Today's Extremes

State Highs State Lows

Community

WunderPhotos

Upload Photos

1,844,087 photos uploaded!

WunderBlogs® & News

Nearby

Air Quality

  Air Quality AQ Index Pollutant
Not available.

Snow Depth

Station Depth Elevation

Earthquake Activity

City Distance Mag. Time & Date
Minimum magnitude displayed is 2.5.

Coastal Water Temperatures

Place Temperature

Stations

Nearby Weather Stations

Station Location Temp. Windchill Dew Point Humidity Wind Precip. Elev Updated Type